createdAt,value
2023-02-12T00:02:54.253Z,101741.81
2023-02-12T00:07:56.874Z,101729.50
2023-02-12T00:12:59.524Z,101715.63
2023-02-12T00:18:03.524Z,101691.13
2023-02-12T00:23:06.416Z,101688.50
2023-02-12T00:28:09.197Z,101693.63
2023-02-12T00:33:13.230Z,101688.41
2023-02-12T00:38:16.237Z,101693.38
2023-02-12T00:43:18.897Z,101681.19
2023-02-12T00:48:22.914Z,101681.56
2023-02-12T00:53:25.581Z,101649.22
2023-02-12T00:58:28.938Z,101606.28
2023-02-12T01:03:33.067Z,101585.44
2023-02-12T01:08:35.744Z,101570.75
2023-02-12T01:13:38.393Z,101566.19
2023-02-12T01:18:42.922Z,101559.25
2023-02-12T01:23:45.787Z,101526.00
2023-02-12T01:28:51.180Z,101509.69
2023-02-12T01:33:57.493Z,101548.78
2023-02-12T01:39:00.103Z,101100.91
2023-02-12T01:44:11.781Z,101054.56
2023-02-12T01:49:19.043Z,101030.88
2023-02-12T01:54:23.241Z,100967.91
2023-02-12T01:59:26.078Z,100966.91
2023-02-12T02:04:34.439Z,100924.91
2023-02-12T02:09:38.046Z,100929.25
2023-02-12T02:14:41.762Z,100867.31
2023-02-12T02:20:08.346Z,100849.88
2023-02-12T02:26:06.005Z,100854.22
2023-02-12T02:31:14.456Z,100817.88
2023-02-12T02:36:26.081Z,100779.00
2023-02-12T02:41:32.709Z,100781.53
2023-02-12T02:46:39.571Z,100776.09
2023-02-12T02:51:45.147Z,100756.75
2023-02-12T02:56:50.486Z,100771.34
2023-02-12T03:01:58.046Z,100769.56
2023-02-12T03:07:04.334Z,100769.28
2023-02-12T03:12:07.830Z,100774.41
2023-02-12T03:17:14.998Z,100787.50
2023-02-12T03:22:19.857Z,100785.69
2023-02-12T03:27:26.842Z,100777.13
2023-02-12T03:32:36.289Z,100776.22
2023-02-12T03:37:42.713Z,100766.56
2023-02-12T03:42:49.377Z,100739.66
2023-02-12T03:48:02.239Z,100678.66
2023-02-12T03:53:05.522Z,100687.31
2023-02-12T03:58:10.984Z,100699.50
2023-02-12T04:03:15.134Z,100699.31
2023-02-12T04:08:17.847Z,100696.25
2023-02-12T04:13:25.649Z,100690.03
2023-02-12T04:18:36.179Z,100706.44
2023-02-12T04:23:51.091Z,100716.81
2023-02-12T04:29:00.841Z,100727.16
2023-02-12T04:34:09.886Z,100734.34
2023-02-12T04:39:17.345Z,100746.28
2023-02-12T04:44:24.214Z,100764.13
2023-02-12T04:49:28.797Z,100763.81
2023-02-12T04:54:31.546Z,100762.91
2023-02-12T04:59:34.252Z,100777.50
2023-02-12T05:04:38.368Z,100760.91
2023-02-12T05:09:41.396Z,100762.53
2023-02-12T05:14:44.133Z,100728.50
2023-02-12T05:19:49.049Z,100728.69
2023-02-12T05:24:51.793Z,100733.13
2023-02-12T05:29:54.544Z,100728.50
2023-02-12T05:34:58.598Z,100743.13
2023-02-12T05:40:01.317Z,100759.63
2023-02-12T05:45:04.141Z,100755.47
2023-02-12T05:50:09.369Z,100762.13
2023-02-12T05:55:12.121Z,100745.63
2023-02-12T06:00:15.986Z,100753.50
2023-02-12T06:05:20.049Z,100768.38
2023-02-12T06:10:22.756Z,100765.53
2023-02-12T06:15:25.447Z,100760.31
2023-02-12T06:20:29.630Z,100776.53
2023-02-12T06:25:32.428Z,100805.22
2023-02-12T06:30:35.213Z,100834.81
2023-02-12T06:35:39.656Z,100818.91
2023-02-12T06:40:43.255Z,100807.50
2023-02-12T06:45:45.939Z,100818.09
2023-02-12T06:50:50.088Z,100826.63
2023-02-12T06:55:52.945Z,100842.56
2023-02-12T07:00:55.780Z,100867.03
2023-02-12T07:05:59.862Z,100867.13
2023-02-12T07:11:02.658Z,100832.69
2023-02-12T07:16:06.768Z,100839.72
2023-02-12T07:21:12.194Z,100850.91
2023-02-12T07:26:15.341Z,100887.06
2023-02-12T07:31:19.648Z,100876.97
2023-02-12T07:36:24.881Z,100885.84
2023-02-12T07:41:28.988Z,100980.16
2023-02-12T07:46:33.824Z,100991.88
2023-02-12T07:51:38.165Z,101001.13
2023-02-12T07:56:41.889Z,100994.88
2023-02-12T08:01:47.183Z,100995.31
2023-02-12T08:06:53.551Z,101042.03
2023-02-12T08:11:56.343Z,101046.81
2023-02-12T08:16:59.065Z,101061.81
2023-02-12T08:22:04.462Z,101057.78
2023-02-12T08:27:07.210Z,101037.88
2023-02-12T08:32:13.933Z,101042.41
2023-02-12T08:37:18.114Z,101126.41
2023-02-12T08:42:20.813Z,101155.28
2023-02-12T08:47:24.176Z,101145.53
2023-02-12T08:52:28.259Z,101159.63
2023-02-12T08:57:31.283Z,101210.72
2023-02-12T09:02:34.094Z,101161.53
2023-02-12T09:07:38.208Z,101279.97
2023-02-12T09:12:40.910Z,101270.38
2023-02-12T09:17:43.712Z,101176.72
2023-02-12T09:22:47.798Z,101136.78
2023-02-12T09:27:50.533Z,101083.41
2023-02-12T09:32:53.277Z,101040.91
2023-02-12T09:37:57.375Z,101022.09
2023-02-12T09:43:06.585Z,101091.91
2023-02-12T09:48:20.788Z,101154.94
2023-02-12T09:53:27.834Z,101168.34
2023-02-12T09:58:35.437Z,101224.84
2023-02-12T10:03:38.195Z,101277.13
2023-02-12T10:09:03.532Z,101346.38
2023-02-12T10:14:20.799Z,101415.03
2023-02-12T10:19:33.421Z,101514.81
2023-02-12T10:24:49.683Z,101567.34
2023-02-12T10:29:52.877Z,101745.53
2023-02-12T10:34:58.140Z,101892.69
2023-02-12T10:40:05.383Z,101987.47
2023-02-12T10:45:14.956Z,102108.88
2023-02-12T10:50:27.967Z,102135.00
2023-02-12T10:55:33.462Z,102791.41
2023-02-12T11:00:38.030Z,102835.69
2023-02-12T11:05:42.762Z,102887.38
2023-02-12T11:10:46.942Z,102937.09
2023-02-12T11:15:50.209Z,103107.31
2023-02-12T11:20:54.656Z,103122.31
2023-02-12T11:26:00.896Z,103123.56
2023-02-12T11:31:03.694Z,103230.25
2023-02-12T11:36:14.941Z,103224.38
2023-02-12T11:41:26.233Z,103341.63
2023-02-12T11:46:29.634Z,103288.41
2023-02-12T11:51:33.017Z,103266.06
2023-02-12T11:56:44.962Z,103223.59
2023-02-12T12:01:47.919Z,103195.72
2023-02-12T12:06:53.963Z,103165.63
2023-02-12T12:12:13.934Z,103149.66
2023-02-12T12:17:35.641Z,103151.16
2023-02-12T12:22:45.266Z,103202.03
2023-02-12T12:28:09.157Z,103183.06
2023-02-12T12:33:18.779Z,103174.66
2023-02-12T12:38:29.725Z,103156.88
2023-02-12T12:43:44.110Z,103138.19
2023-02-12T12:49:14.637Z,103131.38
2023-02-12T12:54:26.668Z,103108.84
2023-02-12T13:00:19.685Z,103095.28
2023-02-12T13:05:56.127Z,103071.84
2023-02-12T13:11:04.563Z,103048.22
2023-02-12T13:16:12.424Z,103022.06
2023-02-12T13:21:17.815Z,103014.81
2023-02-12T13:26:27.257Z,103000.28
2023-02-12T13:31:33.751Z,102992.72
2023-02-12T13:36:37.827Z,102993.56
2023-02-12T13:41:46.677Z,102973.75
2023-02-12T13:46:55.840Z,102980.34
2023-02-12T13:52:03.566Z,102982.84
2023-02-12T13:57:13.495Z,102964.25
2023-02-12T14:02:49.665Z,102954.66
2023-02-12T14:07:54.306Z,102949.53
2023-02-12T14:13:12.584Z,102945.97
2023-02-12T14:18:39.223Z,102943.22
2023-02-12T14:23:43.166Z,102930.81
2023-02-12T14:28:54.813Z,102925.97
2023-02-12T14:34:30.721Z,102928.47
2023-02-12T14:39:33.524Z,102922.66
2023-02-12T14:44:46.173Z,102915.19
2023-02-12T14:49:50.424Z,102908.34
2023-02-12T14:54:55.269Z,102894.13
2023-02-12T15:00:01.441Z,102898.34
2023-02-12T15:05:07.787Z,102889.09
2023-02-12T15:10:14.560Z,102885.16
2023-02-12T15:15:24.859Z,102886.25
2023-02-12T15:20:32.650Z,102882.66
2023-02-12T15:25:35.456Z,102873.59
2023-02-12T15:30:43.525Z,102868.81
2023-02-12T15:35:46.373Z,102867.13
2023-02-12T15:40:55.643Z,102860.28
2023-02-12T15:45:59.930Z,102859.84
2023-02-12T15:51:08.993Z,102859.06
2023-02-12T15:56:13.755Z,102858.03
2023-02-12T16:01:19.599Z,102848.81
2023-02-12T16:06:23.747Z,102846.44
2023-02-12T16:11:27.373Z,102841.84
2023-02-12T16:16:39.755Z,102833.56
2023-02-12T16:21:42.698Z,102829.84
2023-02-12T16:26:47.750Z,102827.75
2023-02-12T16:31:57.520Z,102832.75
2023-02-12T16:37:00.430Z,102825.66
2023-02-12T16:42:03.391Z,102827.50
2023-02-12T16:47:07.578Z,102820.63
2023-02-12T16:52:22.886Z,102818.00
2023-02-12T16:57:25.753Z,102818.00
2023-02-12T17:02:29.965Z,102818.34
2023-02-12T17:07:32.952Z,102821.09
2023-02-12T17:12:35.720Z,102823.97
2023-02-12T17:17:39.962Z,102813.75
2023-02-12T17:22:48.695Z,102826.47
2023-02-12T17:27:51.801Z,102818.19
2023-02-12T17:32:56.057Z,102825.53
2023-02-12T17:37:58.823Z,102832.38
2023-02-12T17:43:01.570Z,102833.16
2023-02-12T17:48:06.352Z,102828.69
2023-02-12T17:53:10.130Z,102832.75
2023-02-12T17:58:12.879Z,102836.00
2023-02-12T18:03:16.993Z,102835.38
2023-02-12T18:08:19.735Z,102836.00
2023-02-12T18:13:22.544Z,102825.88
2023-02-12T18:18:26.700Z,102821.28
2023-02-12T18:23:29.449Z,102819.84
2023-02-12T18:28:32.241Z,102821.28
2023-02-12T18:33:36.974Z,102819.91
2023-02-12T18:38:40.678Z,102816.38
2023-02-12T18:43:44.148Z,102814.53
2023-02-12T18:48:48.687Z,102801.13
2023-02-12T18:53:55.317Z,102811.00
2023-02-12T18:58:59.032Z,102807.81
2023-02-12T19:04:04.578Z,102802.06
2023-02-12T19:09:07.551Z,102804.69
2023-02-12T19:14:10.295Z,102811.25
2023-02-12T19:19:15.282Z,102803.34
2023-02-12T19:24:18.382Z,102812.78
2023-02-12T19:29:21.296Z,102811.59
2023-02-12T19:34:26.788Z,102805.41
2023-02-12T19:39:29.523Z,102806.19
2023-02-12T19:44:32.310Z,102806.34
2023-02-12T19:49:37.963Z,102820.09
2023-02-12T19:54:40.923Z,102855.31
2023-02-12T19:59:46.329Z,102863.19
2023-02-12T20:04:50.579Z,102859.84
2023-02-12T20:09:53.416Z,102854.75
2023-02-12T20:14:56.938Z,102859.56
2023-02-12T20:20:12.370Z,102858.38
2023-02-12T20:25:18.934Z,102853.66
2023-02-12T20:30:21.606Z,102856.16
2023-02-12T20:35:25.782Z,102863.63
2023-02-12T20:40:28.804Z,102863.50
2023-02-12T20:45:31.807Z,102859.16
2023-02-12T20:50:36.110Z,102866.13
2023-02-12T20:55:38.937Z,102864.75
2023-02-12T21:00:41.703Z,102861.06
2023-02-12T21:05:45.778Z,102873.53
2023-02-12T21:10:48.547Z,102865.38
2023-02-12T21:15:51.423Z,102853.06
2023-02-12T21:21:01.482Z,102865.13
2023-02-12T21:26:06.127Z,102859.31
2023-02-12T21:31:11.167Z,102873.50
2023-02-12T21:36:16.733Z,102871.06
2023-02-12T21:41:22.146Z,102874.69
2023-02-12T21:46:25.394Z,102887.41
2023-02-12T21:51:31.901Z,102887.88
2023-02-12T21:56:36.410Z,102883.41
2023-02-12T22:01:42.436Z,102895.59
2023-02-12T22:06:49.713Z,102899.56
2023-02-12T22:11:53.110Z,102906.78
2023-02-12T22:16:56.037Z,102907.72
2023-02-12T22:22:00.152Z,102913.75
2023-02-12T22:27:02.871Z,102922.06
2023-02-12T22:32:05.815Z,102916.66
2023-02-12T22:37:09.977Z,102922.34
2023-02-12T22:42:12.699Z,102938.75
2023-02-12T22:47:15.365Z,102940.25
2023-02-12T22:52:19.471Z,102945.72
2023-02-12T22:57:22.156Z,102943.88
2023-02-12T23:02:25.911Z,102947.56
2023-02-12T23:07:29.959Z,102953.75
2023-02-12T23:12:32.653Z,102961.66
2023-02-12T23:17:35.466Z,102965.97
2023-02-12T23:22:39.573Z,102964.63
2023-02-12T23:27:42.289Z,102963.22
2023-02-12T23:32:45.021Z,102951.69
2023-02-12T23:37:49.169Z,102945.66
2023-02-12T23:42:51.884Z,102955.84
2023-02-12T23:47:55.287Z,102958.63
2023-02-12T23:52:59.642Z,102960.78
2023-02-12T23:58:03.135Z,102956.16
